sensor_id;sensor_type;location;lat;lon;timestamp;P1;durP1;ratioP1;P2;durP2;ratioP2
7316;SDS011;3699;51.462;6.696;2022-11-11T00:02:07;12.03;;;6.73;;
7316;SDS011;3699;51.462;6.696;2022-11-11T00:04:34;9.30;;;5.90;;
7316;SDS011;3699;51.462;6.696;2022-11-11T00:07:01;12.67;;;6.27;;
7316;SDS011;3699;51.462;6.696;2022-11-11T00:09:27;15.60;;;5.87;;
7316;SDS011;3699;51.462;6.696;2022-11-11T00:11:54;11.47;;;6.67;;
7316;SDS011;3699;51.462;6.696;2022-11-11T00:14:21;9.67;;;6.27;;
7316;SDS011;3699;51.462;6.696;2022-11-11T00:16:48;10.93;;;6.53;;
7316;SDS011;3699;51.462;6.696;2022-11-11T00:19:33;14.03;;;6.90;;
7316;SDS011;3699;51.462;6.696;2022-11-11T00:22:23;11.60;;;7.10;;
7316;SDS011;3699;51.462;6.696;2022-11-11T00:25:07;11.73;;;7.73;;
7316;SDS011;3699;51.462;6.696;2022-11-11T00:27:34;10.90;;;6.30;;
7316;SDS011;3699;51.462;6.696;2022-11-11T00:30:02;13.60;;;7.17;;
7316;SDS011;3699;51.462;6.696;2022-11-11T00:32:30;15.17;;;6.23;;
7316;SDS011;3699;51.462;6.696;2022-11-11T00:34:59;7.60;;;6.00;;
7316;SDS011;3699;51.462;6.696;2022-11-11T00:37:44;12.60;;;6.07;;
7316;SDS011;3699;51.462;6.696;2022-11-11T00:40:13;9.37;;;6.23;;
7316;SDS011;3699;51.462;6.696;2022-11-11T00:42:40;10.07;;;7.03;;
7316;SDS011;3699;51.462;6.696;2022-11-11T00:45:08;14.57;;;7.10;;
7316;SDS011;3699;51.462;6.696;2022-11-11T00:47:35;10.23;;;7.40;;
7316;SDS011;3699;51.462;6.696;2022-11-11T00:50:22;15.33;;;7.63;;
7316;SDS011;3699;51.462;6.696;2022-11-11T00:53:09;12.70;;;7.53;;
7316;SDS011;3699;51.462;6.696;2022-11-11T00:55:37;12.07;;;7.37;;
7316;SDS011;3699;51.462;6.696;2022-11-11T00:58:04;15.13;;;6.63;;
7316;SDS011;3699;51.462;6.696;2022-11-11T01:00:31;15.77;;;7.80;;
7316;SDS011;3699;51.462;6.696;2022-11-11T01:02:58;13.13;;;7.30;;
7316;SDS011;3699;51.462;6.696;2022-11-11T01:05:26;13.30;;;7.40;;
7316;SDS011;3699;51.462;6.696;2022-11-11T01:07:53;16.47;;;7.03;;
7316;SDS011;3699;51.462;6.696;2022-11-11T01:10:20;11.50;;;6.87;;
7316;SDS011;3699;51.462;6.696;2022-11-11T01:13:06;14.13;;;6.67;;
7316;SDS011;3699;51.462;6.696;2022-11-11T01:15:39;10.93;;;6.63;;
7316;SDS011;3699;51.462;6.696;2022-11-11T01:18:07;11.33;;;6.50;;
7316;SDS011;3699;51.462;6.696;2022-11-11T01:20:35;17.37;;;7.53;;
7316;SDS011;3699;51.462;6.696;2022-11-11T01:23:03;18.10;;;7.10;;
7316;SDS011;3699;51.462;6.696;2022-11-11T01:25:32;13.63;;;7.47;;
7316;SDS011;3699;51.462;6.696;2022-11-11T01:27:59;11.03;;;6.67;;
7316;SDS011;3699;51.462;6.696;2022-11-11T01:30:26;13.30;;;7.23;;
7316;SDS011;3699;51.462;6.696;2022-11-11T01:32:53;17.23;;;7.07;;
7316;SDS011;3699;51.462;6.696;2022-11-11T01:35:20;11.70;;;8.00;;
7316;SDS011;3699;51.462;6.696;2022-11-11T01:37:48;11.23;;;7.63;;
7316;SDS011;3699;51.462;6.696;2022-11-11T01:40:14;11.83;;;7.83;;
7316;SDS011;3699;51.462;6.696;2022-11-11T01:42:45;12.27;;;7.13;;
7316;SDS011;3699;51.462;6.696;2022-11-11T01:48:12;9.90;;;6.50;;
7316;SDS011;3699;51.462;6.696;2022-11-11T01:50:59;11.70;;;7.33;;
7316;SDS011;3699;51.462;6.696;2022-11-11T01:53:29;14.43;;;7.97;;
7316;SDS011;3699;51.462;6.696;2022-11-11T01:55:57;12.50;;;7.10;;
7316;SDS011;3699;51.462;6.696;2022-11-11T01:58:26;12.80;;;7.13;;
7316;SDS011;3699;51.462;6.696;2022-11-11T02:00:53;12.63;;;7.23;;
7316;SDS011;3699;51.462;6.696;2022-11-11T02:03:21;12.87;;;7.37;;
7316;SDS011;3699;51.462;6.696;2022-11-11T02:05:50;11.57;;;7.90;;
7316;SDS011;3699;51.462;6.696;2022-11-11T02:08:19;11.33;;;7.40;;
7316;SDS011;3699;51.462;6.696;2022-11-11T02:10:58;13.43;;;7.73;;
7316;SDS011;3699;51.462;6.696;2022-11-11T02:13:26;16.00;;;8.33;;
7316;SDS011;3699;51.462;6.696;2022-11-11T02:16:11;11.07;;;7.43;;
7316;SDS011;3699;51.462;6.696;2022-11-11T02:18:37;14.07;;;7.33;;
7316;SDS011;3699;51.462;6.696;2022-11-11T02:21:05;16.10;;;8.07;;
7316;SDS011;3699;51.462;6.696;2022-11-11T02:23:33;15.00;;;7.60;;
7316;SDS011;3699;51.462;6.696;2022-11-11T02:26:05;16.83;;;8.20;;
7316;SDS011;3699;51.462;6.696;2022-11-11T02:28:34;15.27;;;8.90;;
7316;SDS011;3699;51.462;6.696;2022-11-11T02:31:02;16.23;;;7.70;;
7316;SDS011;3699;51.462;6.696;2022-11-11T02:33:29;11.80;;;7.93;;
7316;SDS011;3699;51.462;6.696;2022-11-11T02:35:56;12.93;;;7.90;;
7316;SDS011;3699;51.462;6.696;2022-11-11T02:38:25;16.63;;;8.03;;
7316;SDS011;3699;51.462;6.696;2022-11-11T02:40:54;16.50;;;7.97;;
7316;SDS011;3699;51.462;6.696;2022-11-11T02:43:39;13.30;;;7.97;;
7316;SDS011;3699;51.462;6.696;2022-11-11T02:46:07;14.40;;;7.40;;
7316;SDS011;3699;51.462;6.696;2022-11-11T02:48:33;18.53;;;8.20;;
7316;SDS011;3699;51.462;6.696;2022-11-11T02:51:00;13.97;;;7.90;;
7316;SDS011;3699;51.462;6.696;2022-11-11T02:53:27;16.23;;;10.10;;
7316;SDS011;3699;51.462;6.696;2022-11-11T02:55:54;16.97;;;8.60;;
7316;SDS011;3699;51.462;6.696;2022-11-11T02:58:20;13.40;;;8.53;;
7316;SDS011;3699;51.462;6.696;2022-11-11T03:00:48;14.77;;;8.13;;
7316;SDS011;3699;51.462;6.696;2022-11-11T03:03:15;15.67;;;8.20;;
7316;SDS011;3699;51.462;6.696;2022-11-11T03:05:42;17.70;;;8.57;;
7316;SDS011;3699;51.462;6.696;2022-11-11T03:08:08;17.17;;;8.40;;
7316;SDS011;3699;51.462;6.696;2022-11-11T03:10:35;16.37;;;8.47;;
7316;SDS011;3699;51.462;6.696;2022-11-11T03:13:02;16.23;;;8.00;;
7316;SDS011;3699;51.462;6.696;2022-11-11T03:15:29;13.03;;;7.33;;
7316;SDS011;3699;51.462;6.696;2022-11-11T03:17:57;13.20;;;8.47;;
7316;SDS011;3699;51.462;6.696;2022-11-11T03:20:22;13.03;;;8.27;;
7316;SDS011;3699;51.462;6.696;2022-11-11T03:23:08;14.97;;;9.33;;
7316;SDS011;3699;51.462;6.696;2022-11-11T03:25:37;16.03;;;8.60;;
7316;SDS011;3699;51.462;6.696;2022-11-11T03:28:04;19.03;;;9.10;;
7316;SDS011;3699;51.462;6.696;2022-11-11T03:30:31;20.40;;;9.00;;
7316;SDS011;3699;51.462;6.696;2022-11-11T03:33:00;16.50;;;9.93;;
7316;SDS011;3699;51.462;6.696;2022-11-11T03:35:28;16.43;;;8.60;;
7316;SDS011;3699;51.462;6.696;2022-11-11T03:37:55;14.33;;;8.70;;
7316;SDS011;3699;51.462;6.696;2022-11-11T03:40:39;25.77;;;9.10;;
7316;SDS011;3699;51.462;6.696;2022-11-11T03:43:06;15.60;;;10.00;;
7316;SDS011;3699;51.462;6.696;2022-11-11T03:45:34;15.90;;;9.93;;
7316;SDS011;3699;51.462;6.696;2022-11-11T03:48:02;19.00;;;8.57;;
7316;SDS011;3699;51.462;6.696;2022-11-11T03:50:29;20.47;;;9.33;;
7316;SDS011;3699;51.462;6.696;2022-11-11T03:52:56;21.30;;;8.57;;
7316;SDS011;3699;51.462;6.696;2022-11-11T03:55:23;18.97;;;9.30;;
7316;SDS011;3699;51.462;6.696;2022-11-11T03:57:49;14.17;;;8.23;;
7316;SDS011;3699;51.462;6.696;2022-11-11T04:00:17;13.97;;;8.93;;
7316;SDS011;3699;51.462;6.696;2022-11-11T04:02:45;12.80;;;8.20;;
7316;SDS011;3699;51.462;6.696;2022-11-11T04:05:31;14.27;;;8.40;;
7316;SDS011;3699;51.462;6.696;2022-11-11T04:08:16;15.17;;;8.73;;
7316;SDS011;3699;51.462;6.696;2022-11-11T04:11:02;13.20;;;8.13;;
7316;SDS011;3699;51.462;6.696;2022-11-11T04:13:33;12.80;;;8.77;;
7316;SDS011;3699;51.462;6.696;2022-11-11T04:16:18;17.23;;;9.40;;
7316;SDS011;3699;51.462;6.696;2022-11-11T04:18:45;14.60;;;8.87;;
7316;SDS011;3699;51.462;6.696;2022-11-11T04:21:31;18.50;;;8.33;;
7316;SDS011;3699;51.462;6.696;2022-11-11T04:24:09;14.53;;;8.67;;
7316;SDS011;3699;51.462;6.696;2022-11-11T04:27:07;16.03;;;9.43;;
7316;SDS011;3699;51.462;6.696;2022-11-11T04:29:34;16.43;;;9.03;;
7316;SDS011;3699;51.462;6.696;2022-11-11T04:32:02;20.07;;;10.37;;
7316;SDS011;3699;51.462;6.696;2022-11-11T04:34:47;16.73;;;9.13;;
7316;SDS011;3699;51.462;6.696;2022-11-11T04:37:17;16.10;;;9.50;;
7316;SDS011;3699;51.462;6.696;2022-11-11T04:39:44;14.80;;;9.43;;
7316;SDS011;3699;51.462;6.696;2022-11-11T04:42:29;12.73;;;8.23;;
7316;SDS011;3699;51.462;6.696;2022-11-11T04:44:58;15.77;;;9.20;;
7316;SDS011;3699;51.462;6.696;2022-11-11T04:47:52;16.80;;;9.43;;
7316;SDS011;3699;51.462;6.696;2022-11-11T04:50:20;13.13;;;8.33;;
7316;SDS011;3699;51.462;6.696;2022-11-11T04:52:48;17.67;;;9.37;;
7316;SDS011;3699;51.462;6.696;2022-11-11T04:55:15;13.10;;;9.17;;
7316;SDS011;3699;51.462;6.696;2022-11-11T04:58:00;15.77;;;9.07;;
7316;SDS011;3699;51.462;6.696;2022-11-11T05:00:27;18.33;;;9.37;;
7316;SDS011;3699;51.462;6.696;2022-11-11T05:02:53;13.33;;;8.60;;
7316;SDS011;3699;51.462;6.696;2022-11-11T05:05:38;17.83;;;9.97;;
7316;SDS011;3699;51.462;6.696;2022-11-11T05:08:24;15.70;;;9.13;;
7316;SDS011;3699;51.462;6.696;2022-11-11T05:11:08;17.33;;;9.53;;
7316;SDS011;3699;51.462;6.696;2022-11-11T05:13:35;18.73;;;9.57;;
7316;SDS011;3699;51.462;6.696;2022-11-11T05:16:20;14.20;;;8.70;;
7316;SDS011;3699;51.462;6.696;2022-11-11T05:19:07;18.90;;;9.93;;
7316;SDS011;3699;51.462;6.696;2022-11-11T05:21:53;14.27;;;9.13;;
7316;SDS011;3699;51.462;6.696;2022-11-11T05:24:27;15.80;;;8.47;;
7316;SDS011;3699;51.462;6.696;2022-11-11T05:27:11;17.67;;;8.87;;
7316;SDS011;3699;51.462;6.696;2022-11-11T05:29:38;18.73;;;8.80;;
7316;SDS011;3699;51.462;6.696;2022-11-11T05:32:06;13.97;;;8.97;;
7316;SDS011;3699;51.462;6.696;2022-11-11T05:34:33;14.53;;;8.53;;
7316;SDS011;3699;51.462;6.696;2022-11-11T05:37:00;16.67;;;8.93;;
7316;SDS011;3699;51.462;6.696;2022-11-11T05:39:28;13.07;;;8.20;;
7316;SDS011;3699;51.462;6.696;2022-11-11T05:41:54;18.97;;;10.37;;
7316;SDS011;3699;51.462;6.696;2022-11-11T05:44:21;13.93;;;8.70;;
7316;SDS011;3699;51.462;6.696;2022-11-11T05:46:48;12.93;;;8.37;;
7316;SDS011;3699;51.462;6.696;2022-11-11T05:49:15;15.87;;;8.80;;
7316;SDS011;3699;51.462;6.696;2022-11-11T05:51:41;13.63;;;8.57;;
7316;SDS011;3699;51.462;6.696;2022-11-11T05:54:08;14.47;;;8.77;;
7316;SDS011;3699;51.462;6.696;2022-11-11T05:56:37;14.20;;;8.83;;
7316;SDS011;3699;51.462;6.696;2022-11-11T05:59:06;11.77;;;7.37;;
7316;SDS011;3699;51.462;6.696;2022-11-11T06:01:33;14.83;;;8.43;;
7316;SDS011;3699;51.462;6.696;2022-11-11T06:04:00;10.63;;;7.97;;
7316;SDS011;3699;51.462;6.696;2022-11-11T06:06:27;11.00;;;7.87;;
7316;SDS011;3699;51.462;6.696;2022-11-11T06:08:53;19.60;;;8.50;;
7316;SDS011;3699;51.462;6.696;2022-11-11T06:11:20;15.53;;;9.43;;
7316;SDS011;3699;51.462;6.696;2022-11-11T06:13:49;11.77;;;7.47;;
7316;SDS011;3699;51.462;6.696;2022-11-11T06:16:15;15.37;;;9.27;;
7316;SDS011;3699;51.462;6.696;2022-11-11T06:18:42;14.83;;;7.93;;
7316;SDS011;3699;51.462;6.696;2022-11-11T06:21:09;14.53;;;8.20;;
7316;SDS011;3699;51.462;6.696;2022-11-11T06:23:36;14.70;;;7.37;;
7316;SDS011;3699;51.462;6.696;2022-11-11T06:26:03;11.73;;;7.53;;
7316;SDS011;3699;51.462;6.696;2022-11-11T06:28:40;12.13;;;7.80;;
7316;SDS011;3699;51.462;6.696;2022-11-11T06:31:11;14.33;;;8.47;;
7316;SDS011;3699;51.462;6.696;2022-11-11T06:33:39;13.30;;;7.87;;
7316;SDS011;3699;51.462;6.696;2022-11-11T06:36:07;14.33;;;8.73;;
7316;SDS011;3699;51.462;6.696;2022-11-11T06:38:34;14.50;;;8.80;;
7316;SDS011;3699;51.462;6.696;2022-11-11T06:41:01;12.80;;;8.10;;
7316;SDS011;3699;51.462;6.696;2022-11-11T06:43:28;15.13;;;8.97;;
7316;SDS011;3699;51.462;6.696;2022-11-11T06:45:54;16.00;;;8.40;;
7316;SDS011;3699;51.462;6.696;2022-11-11T06:48:23;14.90;;;7.63;;
7316;SDS011;3699;51.462;6.696;2022-11-11T06:50:50;14.03;;;8.33;;
7316;SDS011;3699;51.462;6.696;2022-11-11T06:53:17;15.57;;;7.83;;
7316;SDS011;3699;51.462;6.696;2022-11-11T06:55:45;17.07;;;7.57;;
7316;SDS011;3699;51.462;6.696;2022-11-11T06:58:12;13.53;;;8.07;;
7316;SDS011;3699;51.462;6.696;2022-11-11T07:00:41;12.77;;;7.90;;
7316;SDS011;3699;51.462;6.696;2022-11-11T07:03:10;14.47;;;8.40;;
7316;SDS011;3699;51.462;6.696;2022-11-11T07:05:39;11.90;;;7.23;;
7316;SDS011;3699;51.462;6.696;2022-11-11T07:08:07;13.57;;;7.13;;
7316;SDS011;3699;51.462;6.696;2022-11-11T07:10:36;13.37;;;7.43;;
7316;SDS011;3699;51.462;6.696;2022-11-11T07:13:04;14.20;;;7.67;;
7316;SDS011;3699;51.462;6.696;2022-11-11T07:15:31;10.60;;;7.47;;
7316;SDS011;3699;51.462;6.696;2022-11-11T07:17:59;15.50;;;7.00;;
7316;SDS011;3699;51.462;6.696;2022-11-11T07:20:26;12.27;;;8.10;;
7316;SDS011;3699;51.462;6.696;2022-11-11T07:22:55;11.73;;;7.00;;
7316;SDS011;3699;51.462;6.696;2022-11-11T07:25:21;14.70;;;8.00;;
7316;SDS011;3699;51.462;6.696;2022-11-11T07:27:48;13.20;;;7.47;;
7316;SDS011;3699;51.462;6.696;2022-11-11T07:30:15;11.83;;;7.50;;
7316;SDS011;3699;51.462;6.696;2022-11-11T07:32:43;19.00;;;8.47;;
7316;SDS011;3699;51.462;6.696;2022-11-11T07:35:11;12.77;;;8.10;;
7316;SDS011;3699;51.462;6.696;2022-11-11T07:37:39;15.63;;;7.93;;
7316;SDS011;3699;51.462;6.696;2022-11-11T07:40:08;18.63;;;9.33;;
7316;SDS011;3699;51.462;6.696;2022-11-11T07:42:36;28.03;;;10.10;;
7316;SDS011;3699;51.462;6.696;2022-11-11T07:45:04;20.07;;;10.90;;
7316;SDS011;3699;51.462;6.696;2022-11-11T07:47:31;18.63;;;10.47;;
7316;SDS011;3699;51.462;6.696;2022-11-11T07:49:59;24.40;;;10.73;;
7316;SDS011;3699;51.462;6.696;2022-11-11T07:52:26;23.10;;;11.00;;
7316;SDS011;3699;51.462;6.696;2022-11-11T07:54:53;17.57;;;9.80;;
7316;SDS011;3699;51.462;6.696;2022-11-11T07:57:21;17.03;;;9.87;;
7316;SDS011;3699;51.462;6.696;2022-11-11T07:59:48;13.40;;;8.00;;
7316;SDS011;3699;51.462;6.696;2022-11-11T08:02:15;16.10;;;7.63;;
7316;SDS011;3699;51.462;6.696;2022-11-11T08:04:42;13.33;;;8.13;;
7316;SDS011;3699;51.462;6.696;2022-11-11T08:07:09;11.47;;;6.30;;
7316;SDS011;3699;51.462;6.696;2022-11-11T08:09:36;12.83;;;6.90;;
7316;SDS011;3699;51.462;6.696;2022-11-11T08:12:03;21.57;;;6.27;;
7316;SDS011;3699;51.462;6.696;2022-11-11T08:14:49;8.37;;;6.43;;
7316;SDS011;3699;51.462;6.696;2022-11-11T08:17:16;13.83;;;7.10;;
7316;SDS011;3699;51.462;6.696;2022-11-11T08:19:43;12.40;;;6.27;;
7316;SDS011;3699;51.462;6.696;2022-11-11T08:22:09;12.53;;;6.40;;
7316;SDS011;3699;51.462;6.696;2022-11-11T08:24:36;8.83;;;5.63;;
7316;SDS011;3699;51.462;6.696;2022-11-11T08:27:03;10.90;;;6.10;;
7316;SDS011;3699;51.462;6.696;2022-11-11T08:29:30;8.57;;;6.10;;
7316;SDS011;3699;51.462;6.696;2022-11-11T08:31:58;11.77;;;6.03;;
7316;SDS011;3699;51.462;6.696;2022-11-11T08:34:25;12.83;;;6.40;;
7316;SDS011;3699;51.462;6.696;2022-11-11T08:36:52;11.17;;;6.80;;
7316;SDS011;3699;51.462;6.696;2022-11-11T08:39:19;10.20;;;6.53;;
7316;SDS011;3699;51.462;6.696;2022-11-11T08:41:45;9.87;;;6.67;;
7316;SDS011;3699;51.462;6.696;2022-11-11T08:44:12;10.90;;;6.10;;
7316;SDS011;3699;51.462;6.696;2022-11-11T08:46:39;12.47;;;7.17;;
7316;SDS011;3699;51.462;6.696;2022-11-11T08:49:07;12.80;;;6.77;;
7316;SDS011;3699;51.462;6.696;2022-11-11T08:51:35;10.80;;;6.27;;
7316;SDS011;3699;51.462;6.696;2022-11-11T08:54:02;13.10;;;5.87;;
7316;SDS011;3699;51.462;6.696;2022-11-11T08:56:29;11.57;;;6.23;;
7316;SDS011;3699;51.462;6.696;2022-11-11T08:58:55;9.73;;;6.47;;
7316;SDS011;3699;51.462;6.696;2022-11-11T09:01:22;9.60;;;5.57;;
7316;SDS011;3699;51.462;6.696;2022-11-11T09:03:49;10.30;;;6.57;;
7316;SDS011;3699;51.462;6.696;2022-11-11T09:06:17;10.87;;;6.17;;
7316;SDS011;3699;51.462;6.696;2022-11-11T09:08:44;10.23;;;6.73;;
7316;SDS011;3699;51.462;6.696;2022-11-11T09:11:11;14.80;;;6.53;;
7316;SDS011;3699;51.462;6.696;2022-11-11T09:13:38;12.23;;;6.07;;
7316;SDS011;3699;51.462;6.696;2022-11-11T09:16:06;9.93;;;6.10;;
7316;SDS011;3699;51.462;6.696;2022-11-11T09:18:34;9.90;;;6.40;;
7316;SDS011;3699;51.462;6.696;2022-11-11T09:21:01;8.20;;;5.60;;
7316;SDS011;3699;51.462;6.696;2022-11-11T09:23:29;11.43;;;6.33;;
7316;SDS011;3699;51.462;6.696;2022-11-11T09:26:13;7.03;;;5.53;;
7316;SDS011;3699;51.462;6.696;2022-11-11T09:28:40;9.07;;;5.83;;
7316;SDS011;3699;51.462;6.696;2022-11-11T09:31:07;8.10;;;5.30;;
7316;SDS011;3699;51.462;6.696;2022-11-11T09:33:33;16.17;;;6.03;;
7316;SDS011;3699;51.462;6.696;2022-11-11T09:36:00;12.60;;;6.07;;
7316;SDS011;3699;51.462;6.696;2022-11-11T09:38:27;9.90;;;6.10;;
7316;SDS011;3699;51.462;6.696;2022-11-11T09:43:42;10.80;;;6.30;;
7316;SDS011;3699;51.462;6.696;2022-11-11T09:46:18;10.43;;;6.97;;
7316;SDS011;3699;51.462;6.696;2022-11-11T09:49:01;18.13;;;6.33;;
7316;SDS011;3699;51.462;6.696;2022-11-11T09:51:42;11.47;;;5.90;;
7316;SDS011;3699;51.462;6.696;2022-11-11T09:54:14;8.03;;;5.13;;
7316;SDS011;3699;51.462;6.696;2022-11-11T09:56:46;12.37;;;6.10;;
7316;SDS011;3699;51.462;6.696;2022-11-11T09:59:14;12.47;;;6.27;;
7316;SDS011;3699;51.462;6.696;2022-11-11T10:01:45;9.17;;;6.30;;
7316;SDS011;3699;51.462;6.696;2022-11-11T10:04:17;11.83;;;6.87;;
7316;SDS011;3699;51.462;6.696;2022-11-11T10:06:52;10.20;;;6.00;;
7316;SDS011;3699;51.462;6.696;2022-11-11T10:09:24;8.20;;;5.70;;
7316;SDS011;3699;51.462;6.696;2022-11-11T10:12:02;9.20;;;5.67;;
7316;SDS011;3699;51.462;6.696;2022-11-11T10:14:35;14.20;;;6.13;;
7316;SDS011;3699;51.462;6.696;2022-11-11T10:17:13;11.10;;;5.80;;
7316;SDS011;3699;51.462;6.696;2022-11-11T10:19:50;10.17;;;5.70;;
7316;SDS011;3699;51.462;6.696;2022-11-11T10:22:30;13.27;;;5.87;;
7316;SDS011;3699;51.462;6.696;2022-11-11T10:25:15;13.10;;;6.13;;
7316;SDS011;3699;51.462;6.696;2022-11-11T10:27:47;10.77;;;6.57;;
7316;SDS011;3699;51.462;6.696;2022-11-11T10:30:18;10.50;;;5.67;;
7316;SDS011;3699;51.462;6.696;2022-11-11T10:32:46;11.43;;;6.20;;
7316;SDS011;3699;51.462;6.696;2022-11-11T10:35:22;10.57;;;5.83;;
7316;SDS011;3699;51.462;6.696;2022-11-11T10:37:52;9.10;;;5.30;;
7316;SDS011;3699;51.462;6.696;2022-11-11T10:40:27;9.67;;;5.43;;
7316;SDS011;3699;51.462;6.696;2022-11-11T10:43:01;11.47;;;6.00;;
7316;SDS011;3699;51.462;6.696;2022-11-11T10:45:28;12.20;;;5.63;;
7316;SDS011;3699;51.462;6.696;2022-11-11T10:48:04;22.63;;;6.00;;
7316;SDS011;3699;51.462;6.696;2022-11-11T10:50:35;22.83;;;5.63;;
7316;SDS011;3699;51.462;6.696;2022-11-11T10:53:06;19.47;;;7.23;;
7316;SDS011;3699;51.462;6.696;2022-11-11T10:55:39;10.07;;;4.83;;
7316;SDS011;3699;51.462;6.696;2022-11-11T10:58:14;9.13;;;5.20;;
7316;SDS011;3699;51.462;6.696;2022-11-11T11:00:43;9.53;;;5.73;;
7316;SDS011;3699;51.462;6.696;2022-11-11T11:03:13;8.47;;;5.30;;
7316;SDS011;3699;51.462;6.696;2022-11-11T11:05:47;18.93;;;5.90;;
7316;SDS011;3699;51.462;6.696;2022-11-11T11:08:19;10.27;;;5.20;;
7316;SDS011;3699;51.462;6.696;2022-11-11T11:10:49;12.33;;;5.70;;
7316;SDS011;3699;51.462;6.696;2022-11-11T11:13:22;12.60;;;5.90;;
7316;SDS011;3699;51.462;6.696;2022-11-11T11:15:55;17.43;;;6.77;;
7316;SDS011;3699;51.462;6.696;2022-11-11T11:18:23;9.53;;;5.37;;
7316;SDS011;3699;51.462;6.696;2022-11-11T11:20:54;11.07;;;5.90;;
7316;SDS011;3699;51.462;6.696;2022-11-11T11:23:33;10.50;;;5.63;;
7316;SDS011;3699;51.462;6.696;2022-11-11T11:26:01;13.53;;;5.80;;
7316;SDS011;3699;51.462;6.696;2022-11-11T11:28:30;14.47;;;6.57;;
7316;SDS011;3699;51.462;6.696;2022-11-11T11:30:59;10.73;;;6.33;;
7316;SDS011;3699;51.462;6.696;2022-11-11T11:33:27;10.83;;;6.37;;
7316;SDS011;3699;51.462;6.696;2022-11-11T11:36:17;13.97;;;7.07;;
7316;SDS011;3699;51.462;6.696;2022-11-11T11:38:44;11.53;;;6.50;;
7316;SDS011;3699;51.462;6.696;2022-11-11T11:41:14;16.40;;;8.10;;
7316;SDS011;3699;51.462;6.696;2022-11-11T11:43:41;15.80;;;6.13;;
7316;SDS011;3699;51.462;6.696;2022-11-11T11:46:13;16.37;;;6.67;;
7316;SDS011;3699;51.462;6.696;2022-11-11T11:49:03;9.80;;;6.37;;
7316;SDS011;3699;51.462;6.696;2022-11-11T11:51:39;11.73;;;6.57;;
7316;SDS011;3699;51.462;6.696;2022-11-11T11:54:16;10.83;;;6.17;;
7316;SDS011;3699;51.462;6.696;2022-11-11T11:56:53;14.00;;;6.10;;
7316;SDS011;3699;51.462;6.696;2022-11-11T11:59:26;9.17;;;5.83;;
7316;SDS011;3699;51.462;6.696;2022-11-11T12:01:58;15.37;;;6.37;;
7316;SDS011;3699;51.462;6.696;2022-11-11T12:04:39;10.77;;;6.47;;
7316;SDS011;3699;51.462;6.696;2022-11-11T12:07:23;13.53;;;7.40;;
7316;SDS011;3699;51.462;6.696;2022-11-11T12:10:02;13.00;;;6.13;;
7316;SDS011;3699;51.462;6.696;2022-11-11T12:12:37;11.93;;;6.10;;
7316;SDS011;3699;51.462;6.696;2022-11-11T12:15:14;14.53;;;6.73;;
7316;SDS011;3699;51.462;6.696;2022-11-11T12:17:51;13.97;;;6.40;;
7316;SDS011;3699;51.462;6.696;2022-11-11T12:20:28;12.47;;;6.87;;
7316;SDS011;3699;51.462;6.696;2022-11-11T12:23:09;12.53;;;6.10;;
7316;SDS011;3699;51.462;6.696;2022-11-11T12:25:52;11.27;;;6.43;;
7316;SDS011;3699;51.462;6.696;2022-11-11T12:28:29;9.30;;;6.03;;
7316;SDS011;3699;51.462;6.696;2022-11-11T12:31:21;17.03;;;7.23;;
7316;SDS011;3699;51.462;6.696;2022-11-11T12:34:01;12.57;;;6.50;;
7316;SDS011;3699;51.462;6.696;2022-11-11T12:36:40;12.37;;;7.13;;
7316;SDS011;3699;51.462;6.696;2022-11-11T12:39:16;8.57;;;6.20;;
7316;SDS011;3699;51.462;6.696;2022-11-11T12:41:58;12.07;;;6.53;;
7316;SDS011;3699;51.462;6.696;2022-11-11T12:44:36;10.20;;;6.27;;
7316;SDS011;3699;51.462;6.696;2022-11-11T12:47:17;10.00;;;5.83;;
7316;SDS011;3699;51.462;6.696;2022-11-11T12:49:55;15.00;;;6.43;;
7316;SDS011;3699;51.462;6.696;2022-11-11T12:52:29;12.50;;;6.10;;
7316;SDS011;3699;51.462;6.696;2022-11-11T12:55:17;13.20;;;5.93;;
7316;SDS011;3699;51.462;6.696;2022-11-11T12:57:56;7.53;;;5.63;;
7316;SDS011;3699;51.462;6.696;2022-11-11T13:00:30;11.97;;;6.40;;
7316;SDS011;3699;51.462;6.696;2022-11-11T13:03:04;13.43;;;6.40;;
7316;SDS011;3699;51.462;6.696;2022-11-11T13:05:41;11.20;;;5.97;;
7316;SDS011;3699;51.462;6.696;2022-11-11T13:08:18;9.50;;;6.20;;
7316;SDS011;3699;51.462;6.696;2022-11-11T13:11:07;10.13;;;5.97;;
7316;SDS011;3699;51.462;6.696;2022-11-11T13:13:43;12.33;;;5.97;;
7316;SDS011;3699;51.462;6.696;2022-11-11T13:16:20;10.47;;;6.60;;
7316;SDS011;3699;51.462;6.696;2022-11-11T13:18:50;14.20;;;7.17;;
7316;SDS011;3699;51.462;6.696;2022-11-11T13:21:23;9.43;;;5.80;;
7316;SDS011;3699;51.462;6.696;2022-11-11T13:23:56;8.27;;;5.23;;
7316;SDS011;3699;51.462;6.696;2022-11-11T13:26:25;12.97;;;5.33;;
7316;SDS011;3699;51.462;6.696;2022-11-11T13:28:57;7.80;;;4.80;;
7316;SDS011;3699;51.462;6.696;2022-11-11T13:31:35;11.27;;;5.40;;
7316;SDS011;3699;51.462;6.696;2022-11-11T13:37:25;10.20;;;4.97;;
7316;SDS011;3699;51.462;6.696;2022-11-11T13:39:58;10.23;;;4.90;;
7316;SDS011;3699;51.462;6.696;2022-11-11T13:42:29;9.50;;;4.87;;
7316;SDS011;3699;51.462;6.696;2022-11-11T13:45:02;8.23;;;4.53;;
7316;SDS011;3699;51.462;6.696;2022-11-11T13:47:33;8.07;;;5.63;;
7316;SDS011;3699;51.462;6.696;2022-11-11T13:50:03;12.30;;;4.73;;
7316;SDS011;3699;51.462;6.696;2022-11-11T13:52:34;6.77;;;4.23;;
7316;SDS011;3699;51.462;6.696;2022-11-11T13:55:05;9.63;;;5.03;;
7316;SDS011;3699;51.462;6.696;2022-11-11T13:57:41;11.13;;;4.40;;
7316;SDS011;3699;51.462;6.696;2022-11-11T14:00:22;6.63;;;4.33;;
7316;SDS011;3699;51.462;6.696;2022-11-11T14:08:54;7.20;;;4.47;;
7316;SDS011;3699;51.462;6.696;2022-11-11T14:11:27;7.93;;;4.40;;
7316;SDS011;3699;51.462;6.696;2022-11-11T14:13:56;8.60;;;4.07;;
7316;SDS011;3699;51.462;6.696;2022-11-11T14:19:27;8.83;;;4.90;;
7316;SDS011;3699;51.462;6.696;2022-11-11T14:21:57;11.33;;;4.53;;
7316;SDS011;3699;51.462;6.696;2022-11-11T14:24:25;13.23;;;5.10;;
7316;SDS011;3699;51.462;6.696;2022-11-11T14:27:00;14.20;;;5.30;;
7316;SDS011;3699;51.462;6.696;2022-11-11T14:29:30;10.13;;;5.20;;
7316;SDS011;3699;51.462;6.696;2022-11-11T14:32:02;7.80;;;5.10;;
7316;SDS011;3699;51.462;6.696;2022-11-11T14:34:50;11.07;;;4.73;;
7316;SDS011;3699;51.462;6.696;2022-11-11T14:37:28;8.33;;;5.60;;
7316;SDS011;3699;51.462;6.696;2022-11-11T14:40:08;9.20;;;4.57;;
7316;SDS011;3699;51.462;6.696;2022-11-11T14:42:44;10.97;;;5.20;;
7316;SDS011;3699;51.462;6.696;2022-11-11T14:54:23;8.47;;;5.30;;
7316;SDS011;3699;51.462;6.696;2022-11-11T14:57:03;8.43;;;5.27;;
7316;SDS011;3699;51.462;6.696;2022-11-11T14:59:33;11.20;;;4.90;;
7316;SDS011;3699;51.462;6.696;2022-11-11T15:02:03;9.20;;;5.30;;
7316;SDS011;3699;51.462;6.696;2022-11-11T15:04:39;9.17;;;5.40;;
7316;SDS011;3699;51.462;6.696;2022-11-11T15:07:13;10.43;;;5.67;;
7316;SDS011;3699;51.462;6.696;2022-11-11T15:10:02;9.83;;;5.87;;
7316;SDS011;3699;51.462;6.696;2022-11-11T15:12:47;11.07;;;5.67;;
7316;SDS011;3699;51.462;6.696;2022-11-11T15:15:34;9.63;;;5.63;;
7316;SDS011;3699;51.462;6.696;2022-11-11T15:18:11;12.67;;;6.03;;
7316;SDS011;3699;51.462;6.696;2022-11-11T15:20:53;12.53;;;5.53;;
7316;SDS011;3699;51.462;6.696;2022-11-11T15:23:30;9.60;;;5.40;;
7316;SDS011;3699;51.462;6.696;2022-11-11T15:26:05;11.80;;;6.60;;
7316;SDS011;3699;51.462;6.696;2022-11-11T15:28:49;13.00;;;6.37;;
7316;SDS011;3699;51.462;6.696;2022-11-11T15:31:30;16.17;;;6.23;;
7316;SDS011;3699;51.462;6.696;2022-11-11T15:34:10;9.43;;;5.57;;
7316;SDS011;3699;51.462;6.696;2022-11-11T15:36:52;8.37;;;5.23;;
7316;SDS011;3699;51.462;6.696;2022-11-11T15:39:20;12.97;;;6.53;;
7316;SDS011;3699;51.462;6.696;2022-11-11T15:41:49;16.50;;;7.90;;
7316;SDS011;3699;51.462;6.696;2022-11-11T15:44:18;30.70;;;12.13;;
7316;SDS011;3699;51.462;6.696;2022-11-11T15:46:48;23.43;;;10.50;;
7316;SDS011;3699;51.462;6.696;2022-11-11T15:52:04;25.03;;;11.63;;
7316;SDS011;3699;51.462;6.696;2022-11-11T15:54:37;28.80;;;14.13;;
7316;SDS011;3699;51.462;6.696;2022-11-11T15:57:14;38.03;;;16.50;;
7316;SDS011;3699;51.462;6.696;2022-11-11T15:59:46;50.10;;;21.57;;
7316;SDS011;3699;51.462;6.696;2022-11-11T16:02:16;56.77;;;24.97;;